createdAt,value
2022-11-24T00:04:26.573Z,7.15
2022-11-24T00:09:28.043Z,6.40
2022-11-24T00:14:29.461Z,6.47
2022-11-24T00:19:30.899Z,8.10
2022-11-24T00:24:32.748Z,6.50
2022-11-24T00:29:34.357Z,6.47
2022-11-24T00:34:36.105Z,6.90
2022-11-24T00:39:37.677Z,6.40
2022-11-24T00:44:39.106Z,7.20
2022-11-24T00:49:40.532Z,6.40
2022-11-24T00:54:41.975Z,7.33
2022-11-24T00:59:43.407Z,6.93
2022-11-24T01:04:44.842Z,6.47
2022-11-24T01:09:46.267Z,7.40
2022-11-24T01:14:47.714Z,6.93
2022-11-24T01:19:49.217Z,7.70
2022-11-24T01:24:50.656Z,7.03
2022-11-24T01:29:52.077Z,7.13
2022-11-24T01:34:53.623Z,6.50
2022-11-24T01:39:55.169Z,6.70
2022-11-24T01:45:37.000Z,6.55
2022-11-24T01:50:38.901Z,6.97
2022-11-24T01:55:41.155Z,7.75
2022-11-24T02:00:44.672Z,7.57
2022-11-24T02:05:48.205Z,7.25
2022-11-24T02:10:49.689Z,7.90
2022-11-24T02:15:52.917Z,7.73
2022-11-24T02:20:55.535Z,7.87
2022-11-24T02:26:16.299Z,7.10
2022-11-24T02:31:18.059Z,8.27
2022-11-24T02:36:19.534Z,8.63
2022-11-24T02:41:25.399Z,8.73
2022-11-24T02:46:27.001Z,7.93
2022-11-24T02:51:29.552Z,8.57
2022-11-24T02:56:30.997Z,8.73
2022-11-24T03:01:32.488Z,9.60
2022-11-24T03:06:33.972Z,8.88
2022-11-24T03:11:35.508Z,8.82
2022-11-24T03:16:37.056Z,9.32
2022-11-24T03:21:38.522Z,9.82
2022-11-24T03:26:40.229Z,10.67
2022-11-24T03:31:41.852Z,9.88
2022-11-24T03:36:43.411Z,10.43
2022-11-24T03:41:44.867Z,10.73
2022-11-24T03:46:46.361Z,10.93
2022-11-24T03:51:47.825Z,10.17
2022-11-24T03:56:49.449Z,10.27
2022-11-24T04:01:51.071Z,11.30
2022-11-24T04:06:52.531Z,11.52
2022-11-24T04:12:12.505Z,10.73
2022-11-24T04:17:13.943Z,10.60
2022-11-24T04:22:15.383Z,11.10
2022-11-24T04:27:16.852Z,12.27
2022-11-24T04:32:18.370Z,11.85
2022-11-24T04:37:19.859Z,12.23
2022-11-24T04:42:21.579Z,12.30
2022-11-24T04:47:24.885Z,12.80
2022-11-24T04:52:26.589Z,12.17
2022-11-24T04:57:28.118Z,13.75
2022-11-24T05:02:29.594Z,12.95
2022-11-24T05:07:31.118Z,12.55
2022-11-24T05:12:33.489Z,13.10
2022-11-24T05:17:38.207Z,12.88
2022-11-24T05:22:39.654Z,13.50
2022-11-24T05:27:41.362Z,14.50
2022-11-24T05:32:42.786Z,14.75
2022-11-24T05:37:44.854Z,14.75
2022-11-24T05:42:48.119Z,16.92
2022-11-24T05:47:51.392Z,15.30
2022-11-24T05:52:52.828Z,14.52
2022-11-24T05:58:01.719Z,15.23
2022-11-24T06:03:03.463Z,13.65
2022-11-24T06:08:05.416Z,16.02
2022-11-24T06:13:07.842Z,16.10
2022-11-24T06:18:09.375Z,13.68
2022-11-24T06:23:10.879Z,13.30
2022-11-24T06:28:12.355Z,14.50
2022-11-24T06:33:14.364Z,14.25
2022-11-24T06:38:20.113Z,14.45
2022-11-24T06:43:27.778Z,15.40
2022-11-24T06:48:30.064Z,15.57
2022-11-24T06:53:33.044Z,15.13
2022-11-24T06:58:35.129Z,14.10
2022-11-24T07:03:36.660Z,14.57
2022-11-24T07:08:38.203Z,15.15
2022-11-24T07:13:39.760Z,15.60
2022-11-24T07:18:42.378Z,16.17
2022-11-24T07:23:44.135Z,15.80
2022-11-24T07:28:45.922Z,15.48
2022-11-24T07:33:52.373Z,15.57
2022-11-24T07:38:53.879Z,16.17
2022-11-24T07:43:55.579Z,16.05
2022-11-24T07:48:57.130Z,16.48
2022-11-24T07:53:58.761Z,14.70
2022-11-24T07:59:00.420Z,15.75
2022-11-24T08:04:02.481Z,14.75
2022-11-24T08:09:04.072Z,15.40
2022-11-24T08:14:05.519Z,14.80
2022-11-24T08:19:07.038Z,14.90
2022-11-24T08:24:08.786Z,14.68
2022-11-24T08:29:10.501Z,14.90
2022-11-24T08:34:11.928Z,14.65
2022-11-24T08:39:13.436Z,14.85
2022-11-24T08:44:17.456Z,14.40
2022-11-24T08:49:19.009Z,13.80
2022-11-24T08:54:25.596Z,14.40
2022-11-24T08:59:27.128Z,14.35
2022-11-24T09:04:28.664Z,13.80
2022-11-24T09:09:30.173Z,13.07
2022-11-24T09:14:31.823Z,14.10
2022-11-24T09:19:33.699Z,14.73
2022-11-24T09:24:35.338Z,13.57
2022-11-24T09:29:36.965Z,13.38
2022-11-24T09:34:38.535Z,13.10
2022-11-24T09:39:40.047Z,13.25
2022-11-24T09:45:02.968Z,12.50
2022-11-24T09:50:11.161Z,12.73
2022-11-24T09:55:28.240Z,12.18
2022-11-24T10:00:30.073Z,12.07
2022-11-24T10:05:36.062Z,12.23
2022-11-24T10:10:53.542Z,10.32
2022-11-24T10:16:06.985Z,14.27
2022-11-24T10:21:37.482Z,12.13
2022-11-24T10:26:46.937Z,11.18
2022-11-24T10:31:53.692Z,16.73
2022-11-24T10:37:22.801Z,11.38
2022-11-24T10:42:36.910Z,12.82
2022-11-24T10:47:39.074Z,10.02
2022-11-24T10:52:44.928Z,23.25
2022-11-24T10:57:46.455Z,11.00
2022-11-24T11:02:49.484Z,11.00
2022-11-24T11:07:51.065Z,10.60
2022-11-24T11:12:52.610Z,10.35
2022-11-24T11:17:58.088Z,11.77
2022-11-24T11:23:13.264Z,10.85
2022-11-24T11:28:21.680Z,9.98
2022-11-24T11:38:52.830Z,9.13
2022-11-24T11:44:08.861Z,9.40
2022-11-24T11:49:13.252Z,9.85
2022-11-24T11:54:39.211Z,15.35
2022-11-24T12:00:05.003Z,11.38
2022-11-24T12:05:19.941Z,9.25
2022-11-24T12:10:36.095Z,9.77
2022-11-24T12:20:52.826Z,9.27
2022-11-24T12:26:04.014Z,8.77
2022-11-24T12:31:07.007Z,10.35
2022-11-24T12:36:26.800Z,9.25
2022-11-24T12:41:42.524Z,10.07
2022-11-24T12:47:09.342Z,7.82
2022-11-24T12:52:37.444Z,9.15
2022-11-24T12:57:54.749Z,8.70
2022-11-24T13:03:27.020Z,8.63
2022-11-24T13:08:30.916Z,8.60
2022-11-24T13:14:10.667Z,8.13
2022-11-24T13:19:19.629Z,9.60
2022-11-24T13:24:24.837Z,10.68
2022-11-24T13:29:37.542Z,10.65
2022-11-24T13:34:39.067Z,9.30
2022-11-24T13:40:12.121Z,8.27
2022-11-24T13:45:50.594Z,8.60
2022-11-24T13:50:53.212Z,11.35
2022-11-24T13:55:59.257Z,9.40
2022-11-24T14:01:03.719Z,10.38
2022-11-24T14:06:05.957Z,10.60
2022-11-24T14:11:17.096Z,12.23
2022-11-24T14:16:21.261Z,14.07
2022-11-24T14:21:30.032Z,11.95
2022-11-24T14:26:37.638Z,10.05
2022-11-24T14:31:39.308Z,9.48
2022-11-24T14:36:41.692Z,9.63
2022-11-24T14:41:54.508Z,11.07
2022-11-24T14:47:05.248Z,10.02
2022-11-24T14:52:14.124Z,9.13
2022-11-24T14:57:37.773Z,8.50
2022-11-24T15:02:53.396Z,9.85
2022-11-24T15:08:03.087Z,8.48
2022-11-24T15:13:16.211Z,9.43
2022-11-24T15:18:27.563Z,9.60
2022-11-24T15:23:36.541Z,10.45
2022-11-24T15:28:38.486Z,10.15
2022-11-24T15:33:41.451Z,10.35
2022-11-24T15:38:42.969Z,10.73
2022-11-24T15:43:44.438Z,10.73
2022-11-24T15:48:46.133Z,9.50
2022-11-24T15:53:54.113Z,11.27
2022-11-24T15:58:58.884Z,11.50
2022-11-24T16:04:02.517Z,10.73
2022-11-24T16:09:03.992Z,9.93
2022-11-24T16:14:05.543Z,10.93
2022-11-24T16:19:09.313Z,12.07
2022-11-24T16:24:10.898Z,10.87
2022-11-24T16:29:12.401Z,10.55
2022-11-24T16:34:15.263Z,9.95
2022-11-24T16:39:16.816Z,10.93
2022-11-24T16:44:18.239Z,10.63
2022-11-24T16:49:19.864Z,12.05
2022-11-24T16:54:21.404Z,16.23
2022-11-24T16:59:22.894Z,13.27
2022-11-24T17:04:24.403Z,12.60
2022-11-24T17:09:25.854Z,18.05
2022-11-24T17:14:27.410Z,14.60
2022-11-24T17:19:31.625Z,13.00
2022-11-24T17:24:33.377Z,13.77
2022-11-24T17:29:35.059Z,12.10
2022-11-24T17:34:36.702Z,12.18
2022-11-24T17:39:38.442Z,12.13
2022-11-24T17:44:39.949Z,12.90
2022-11-24T17:49:41.388Z,12.95
2022-11-24T17:54:56.598Z,13.55
2022-11-24T17:59:58.165Z,12.00
2022-11-24T18:04:59.754Z,18.15
2022-11-24T18:10:01.238Z,12.25
2022-11-24T18:15:02.822Z,14.38
2022-11-24T18:20:04.880Z,12.95
2022-11-24T18:25:06.978Z,14.55
2022-11-24T18:30:08.776Z,14.70
2022-11-24T18:35:10.597Z,17.95
2022-11-24T18:40:12.140Z,16.95
2022-11-24T18:45:13.679Z,24.45
2022-11-24T18:50:16.676Z,14.18
2022-11-24T18:55:18.176Z,14.75
2022-11-24T19:00:22.257Z,13.38
2022-11-24T19:05:23.780Z,18.60
2022-11-24T19:10:25.217Z,14.55
2022-11-24T19:15:26.741Z,16.05
2022-11-24T19:20:28.526Z,15.82
2022-11-24T19:25:30.064Z,16.23
2022-11-24T19:30:31.613Z,25.75
2022-11-24T19:35:33.090Z,25.33
2022-11-24T19:40:34.705Z,20.02
2022-11-24T19:45:36.197Z,17.83
2022-11-24T19:50:37.696Z,17.00
2022-11-24T19:55:39.212Z,17.27
2022-11-24T20:00:40.701Z,18.63
2022-11-24T20:05:42.171Z,18.73
2022-11-24T20:10:44.559Z,16.30
2022-11-24T20:15:46.095Z,17.17
2022-11-24T20:20:47.600Z,18.08
2022-11-24T20:25:49.030Z,17.08
2022-11-24T20:30:50.543Z,18.70
2022-11-24T20:35:52.003Z,18.38
2022-11-24T20:40:53.442Z,20.35
2022-11-24T20:45:54.954Z,19.25
2022-11-24T20:50:57.033Z,19.50
2022-11-24T20:56:06.739Z,23.58
2022-11-24T21:01:14.381Z,23.42
2022-11-24T21:06:16.069Z,21.50
2022-11-24T21:11:19.213Z,21.48
2022-11-24T21:16:24.881Z,20.42
2022-11-24T21:21:33.875Z,20.35
2022-11-24T21:26:36.935Z,19.80
2022-11-24T21:31:38.817Z,18.85
2022-11-24T21:36:44.596Z,20.05
2022-11-24T21:41:46.185Z,20.35
2022-11-24T21:46:52.717Z,24.42
2022-11-24T21:51:57.294Z,25.45
2022-11-24T21:56:58.731Z,21.10
2022-11-24T22:02:00.385Z,23.95
2022-11-24T22:07:01.840Z,21.90
2022-11-24T22:12:03.384Z,23.25
2022-11-24T22:17:04.861Z,22.55
2022-11-24T22:22:06.385Z,20.27
2022-11-24T22:27:07.890Z,21.10
2022-11-24T22:32:09.435Z,19.80
2022-11-24T22:37:10.943Z,21.45
2022-11-24T22:42:12.432Z,19.90
2022-11-24T22:47:13.920Z,19.48
2022-11-24T22:52:15.386Z,21.83
2022-11-24T22:57:16.905Z,20.25
2022-11-24T23:02:18.399Z,19.02
2022-11-24T23:07:19.983Z,18.25
2022-11-24T23:12:21.517Z,18.77
2022-11-24T23:17:23.010Z,17.77
2022-11-24T23:22:24.545Z,16.80
2022-11-24T23:27:25.985Z,17.58
2022-11-24T23:32:27.527Z,17.27
2022-11-24T23:37:52.211Z,17.15
2022-11-24T23:42:50.413Z,17.27
2022-11-24T23:47:53.390Z,17.57
2022-11-24T23:52:54.871Z,18.27
2022-11-24T23:57:56.390Z,18.03
